createdAt,value
2023-04-08T00:00:22.257Z,34.94
2023-04-08T00:00:52.309Z,34.94
2023-04-08T00:01:22.397Z,34.95
2023-04-08T00:01:52.649Z,34.99
2023-04-08T00:02:22.692Z,34.95
2023-04-08T00:02:52.691Z,34.92
2023-04-08T00:03:22.821Z,34.97
2023-04-08T00:03:52.950Z,34.94
2023-04-08T00:04:22.947Z,34.97
2023-04-08T00:04:52.981Z,34.95
2023-04-08T00:05:22.983Z,34.94
2023-04-08T00:05:52.988Z,34.93
2023-04-08T00:06:23.081Z,34.93
2023-04-08T00:06:53.163Z,34.94
2023-04-08T00:07:23.241Z,34.93
2023-04-08T00:07:53.329Z,34.87
2023-04-08T00:08:23.411Z,34.90
2023-04-08T00:08:53.498Z,34.84
2023-04-08T00:09:23.575Z,34.89
2023-04-08T00:09:53.681Z,34.82
2023-04-08T00:10:23.757Z,34.82
2023-04-08T00:10:53.856Z,34.82
2023-04-08T00:11:23.935Z,34.83
2023-04-08T00:11:54.018Z,34.81
2023-04-08T00:12:24.105Z,34.81
2023-04-08T00:12:54.188Z,34.81
2023-04-08T00:13:24.268Z,34.82
2023-04-08T00:13:54.349Z,34.80
2023-04-08T00:14:24.438Z,34.83
2023-04-08T00:14:54.531Z,34.82
2023-04-08T00:15:24.632Z,34.82
2023-04-08T00:15:54.688Z,34.84
2023-04-08T00:16:24.798Z,34.81
2023-04-08T00:16:54.828Z,34.82
2023-04-08T00:17:24.940Z,34.79
2023-04-08T00:17:55.017Z,34.77
2023-04-08T00:18:25.109Z,34.78
2023-04-08T00:18:55.188Z,34.77
2023-04-08T00:19:25.298Z,34.81
2023-04-08T00:19:55.386Z,34.77
2023-04-08T00:20:25.494Z,34.78
2023-04-08T00:20:55.547Z,34.80
2023-04-08T00:21:25.644Z,34.79
2023-04-08T00:21:55.711Z,34.83
2023-04-08T00:22:25.813Z,34.85
2023-04-08T00:22:55.888Z,34.84
2023-04-08T00:23:25.981Z,34.92
2023-04-08T00:23:56.067Z,34.87
2023-04-08T00:24:26.149Z,34.83
2023-04-08T00:24:56.253Z,34.83
2023-04-08T00:25:26.339Z,34.78
2023-04-08T00:25:56.413Z,34.77
2023-04-08T00:26:26.515Z,34.79
2023-04-08T00:26:56.593Z,34.75
2023-04-08T00:27:26.706Z,34.75
2023-04-08T00:27:56.768Z,34.73
2023-04-08T00:28:26.866Z,34.73
2023-04-08T00:28:56.936Z,34.73
2023-04-08T00:29:27.024Z,34.74
2023-04-08T00:29:57.114Z,34.73
2023-04-08T00:30:27.220Z,34.75
2023-04-08T00:30:57.395Z,34.78
2023-04-08T00:31:27.434Z,34.79
2023-04-08T00:31:57.413Z,34.79
2023-04-08T00:32:27.520Z,34.79
2023-04-08T00:32:57.660Z,34.79
2023-04-08T00:33:27.623Z,34.79
2023-04-08T00:33:57.703Z,34.78
2023-04-08T00:34:27.783Z,34.77
2023-04-08T00:34:57.871Z,34.82
2023-04-08T00:35:28.043Z,34.79
2023-04-08T00:35:58.018Z,34.79
2023-04-08T00:36:28.013Z,34.77
2023-04-08T00:36:58.111Z,34.81
2023-04-08T00:37:28.182Z,34.78
2023-04-08T00:37:58.260Z,34.75
2023-04-08T00:38:28.346Z,34.75
2023-04-08T00:38:58.448Z,34.73
2023-04-08T00:39:28.522Z,34.77
2023-04-08T00:39:58.616Z,34.81
2023-04-08T00:40:28.685Z,34.81
2023-04-08T00:40:58.764Z,34.74
2023-04-08T00:41:28.856Z,34.79
2023-04-08T00:41:58.941Z,34.73
2023-04-08T00:42:29.036Z,34.74
2023-04-08T00:42:59.123Z,34.80
2023-04-08T00:43:29.195Z,34.76
2023-04-08T00:43:59.290Z,34.71
2023-04-08T00:44:29.366Z,34.80
2023-04-08T00:44:59.469Z,34.80
2023-04-08T00:45:29.576Z,34.78
2023-04-08T00:45:59.725Z,34.83
2023-04-08T00:46:29.714Z,34.87
2023-04-08T00:46:59.769Z,34.86
2023-04-08T00:47:29.860Z,34.90
2023-04-08T00:47:59.910Z,34.87
2023-04-08T00:48:29.852Z,34.93
2023-04-08T00:48:59.885Z,34.95
2023-04-08T00:49:29.970Z,34.92
2023-04-08T00:50:00.036Z,34.95
2023-04-08T00:50:30.064Z,34.94
2023-04-08T00:51:00.123Z,34.91
2023-04-08T00:51:30.144Z,34.99
2023-04-08T00:52:00.187Z,34.99
2023-04-08T00:52:30.251Z,34.96
2023-04-08T00:53:00.286Z,34.97
2023-04-08T00:53:30.324Z,34.97
2023-04-08T00:54:00.371Z,35.06
2023-04-08T00:54:30.425Z,35.02
2023-04-08T00:55:00.484Z,34.99
2023-04-08T00:55:30.513Z,34.99
2023-04-08T00:56:00.567Z,35.03
2023-04-08T00:56:30.621Z,35.03
2023-04-08T00:57:00.692Z,35.00
2023-04-08T00:57:30.772Z,34.96
2023-04-08T00:58:00.846Z,35.02
2023-04-08T00:58:30.936Z,35.02
2023-04-08T00:59:01.053Z,35.03
2023-04-08T00:59:31.118Z,35.07
2023-04-08T01:00:01.207Z,35.03
2023-04-08T01:00:31.352Z,35.07
2023-04-08T01:01:01.296Z,35.07
2023-04-08T01:01:31.411Z,35.06
2023-04-08T01:02:01.470Z,35.00
2023-04-08T01:02:31.688Z,35.04
2023-04-08T01:03:01.659Z,35.08
2023-04-08T01:03:31.597Z,35.01
2023-04-08T01:04:01.717Z,35.02
2023-04-08T01:04:31.845Z,34.99
2023-04-08T01:05:01.737Z,35.01
2023-04-08T01:05:31.831Z,34.99
2023-04-08T01:06:01.911Z,34.94
2023-04-08T01:06:31.986Z,34.91
2023-04-08T01:07:02.089Z,34.92
2023-04-08T01:07:32.174Z,34.97
2023-04-08T01:08:02.277Z,34.94
2023-04-08T01:08:32.342Z,34.91
2023-04-08T01:09:02.423Z,34.87
2023-04-08T01:09:32.510Z,34.82
2023-04-08T01:10:02.604Z,34.81
2023-04-08T01:10:32.664Z,34.78
2023-04-08T01:11:02.763Z,34.70
2023-04-08T01:11:32.843Z,34.73
2023-04-08T01:12:02.937Z,34.76
2023-04-08T01:12:33.018Z,34.69
2023-04-08T01:13:03.098Z,34.71
2023-04-08T01:13:33.189Z,34.70
2023-04-08T01:14:03.264Z,34.73
2023-04-08T01:14:33.347Z,34.74
2023-04-08T01:15:03.459Z,34.74
2023-04-08T01:15:33.586Z,34.74
2023-04-08T01:16:03.605Z,34.74
2023-04-08T01:16:33.598Z,34.79
2023-04-08T01:17:03.688Z,34.78
2023-04-08T01:17:33.792Z,34.79
2023-04-08T01:18:03.879Z,34.76
2023-04-08T01:18:33.876Z,34.77
2023-04-08T01:19:03.960Z,34.73
2023-04-08T01:19:34.055Z,34.77
2023-04-08T01:20:04.134Z,34.71
2023-04-08T01:20:34.214Z,34.74
2023-04-08T01:21:04.296Z,34.71
2023-04-08T01:21:34.380Z,34.74
2023-04-08T01:22:04.469Z,34.70
2023-04-08T01:22:34.552Z,34.73
2023-04-08T01:23:04.638Z,34.73
2023-04-08T01:23:34.725Z,34.71
2023-04-08T01:24:04.816Z,34.76
2023-04-08T01:24:34.900Z,34.70
2023-04-08T01:25:04.979Z,34.65
2023-04-08T01:25:35.059Z,34.70
2023-04-08T01:26:05.135Z,34.73
2023-04-08T01:26:35.221Z,34.70
2023-04-08T01:27:05.318Z,34.75
2023-04-08T01:27:35.412Z,34.71
2023-04-08T01:28:05.495Z,34.74
2023-04-08T01:28:35.581Z,34.77
2023-04-08T01:29:05.681Z,34.75
2023-04-08T01:29:35.774Z,34.77
2023-04-08T01:30:05.862Z,34.77
2023-04-08T01:30:35.971Z,34.75
2023-04-08T01:31:06.086Z,34.71
2023-04-08T01:31:36.140Z,34.71
2023-04-08T01:32:06.092Z,34.66
2023-04-08T01:32:36.212Z,34.71
2023-04-08T01:33:06.190Z,34.69
2023-04-08T01:33:36.274Z,34.69
2023-04-08T01:34:06.373Z,34.70
2023-04-08T01:34:36.463Z,34.74
2023-04-08T01:35:06.548Z,34.67
2023-04-08T01:35:36.673Z,34.74
2023-04-08T01:36:06.802Z,34.68
2023-04-08T01:36:36.799Z,34.71
2023-04-08T01:37:06.890Z,34.70
2023-04-08T01:37:36.991Z,34.69
2023-04-08T01:38:07.080Z,34.70
2023-04-08T01:38:37.147Z,34.69
2023-04-08T01:39:07.251Z,34.70
2023-04-08T01:39:37.330Z,34.69
2023-04-08T01:40:07.409Z,34.67
2023-04-08T01:40:37.503Z,34.71
2023-04-08T01:41:07.588Z,34.71
2023-04-08T01:41:37.687Z,34.71
2023-04-08T01:42:07.767Z,34.78
2023-04-08T01:42:37.855Z,34.80
2023-04-08T01:43:07.954Z,34.82
2023-04-08T01:43:38.028Z,34.80
2023-04-08T01:44:08.126Z,34.90
2023-04-08T01:44:38.207Z,34.87
2023-04-08T01:45:08.298Z,34.88
2023-04-08T01:45:38.417Z,34.84
2023-04-08T01:46:08.574Z,34.84
2023-04-08T01:46:38.614Z,34.84
2023-04-08T01:47:08.580Z,34.90
2023-04-08T01:47:38.673Z,34.91
2023-04-08T01:48:08.734Z,34.90
2023-04-08T01:48:38.844Z,34.95
2023-04-08T01:49:08.917Z,34.93
2023-04-08T01:49:39.006Z,34.93
2023-04-08T01:50:09.090Z,34.95
2023-04-08T01:50:39.175Z,34.96
2023-04-08T01:51:09.251Z,34.97
2023-04-08T01:51:39.345Z,34.96
2023-04-08T01:52:09.426Z,34.99
2023-04-08T01:52:39.507Z,34.99
2023-04-08T01:53:09.592Z,34.99
2023-04-08T01:53:39.696Z,34.93
2023-04-08T01:54:09.776Z,34.93
2023-04-08T01:54:39.848Z,34.97
2023-04-08T01:55:09.944Z,34.97
2023-04-08T01:55:40.035Z,34.91
2023-04-08T01:56:10.110Z,34.92
2023-04-08T01:56:40.202Z,34.91
2023-04-08T01:57:10.213Z,34.88
2023-04-08T01:57:40.222Z,34.88
2023-04-08T01:58:10.225Z,34.87
2023-04-08T01:58:40.242Z,34.90
2023-04-08T01:59:10.264Z,34.90
2023-04-08T01:59:40.269Z,34.85
2023-04-08T02:00:10.277Z,34.91
2023-04-08T02:00:40.296Z,34.88
2023-04-08T02:01:10.274Z,34.90
2023-04-08T02:02:10.409Z,34.83
2023-04-08T02:02:40.700Z,34.86
2023-04-08T02:03:10.694Z,34.83
2023-04-08T02:03:40.610Z,34.80
2023-04-08T02:04:10.546Z,34.82
2023-04-08T02:04:40.775Z,34.78
2023-04-08T02:05:10.670Z,34.75
2023-04-08T02:05:40.691Z,34.80
2023-04-08T02:06:10.690Z,34.76
2023-04-08T02:06:40.706Z,34.71
2023-04-08T02:07:10.705Z,34.77
2023-04-08T02:07:40.712Z,34.72
2023-04-08T02:08:10.727Z,34.70
2023-04-08T02:08:40.745Z,34.71
2023-04-08T02:09:10.745Z,34.74
2023-04-08T02:09:40.756Z,34.72
2023-04-08T02:10:10.764Z,34.70
2023-04-08T02:10:40.777Z,34.68
2023-04-08T02:11:10.781Z,34.71
2023-04-08T02:11:40.800Z,34.73
2023-04-08T02:12:10.793Z,34.72
2023-04-08T02:12:40.795Z,34.71
2023-04-08T02:13:10.815Z,34.65
2023-04-08T02:13:40.822Z,34.67
2023-04-08T02:14:10.838Z,34.66
2023-04-08T02:14:40.844Z,34.66
2023-04-08T02:15:10.845Z,34.64
2023-04-08T02:15:40.866Z,34.68
2023-04-08T02:16:10.967Z,34.67
2023-04-08T02:16:41.166Z,34.68
2023-04-08T02:17:10.985Z,34.67
2023-04-08T02:17:41.024Z,34.70
2023-04-08T02:18:11.095Z,34.70
2023-04-08T02:18:41.123Z,34.64
2023-04-08T02:19:11.119Z,34.75
2023-04-08T02:20:11.118Z,34.63
2023-04-08T02:20:41.140Z,34.68
2023-04-08T02:21:11.124Z,34.71
2023-04-08T02:21:41.129Z,34.75
2023-04-08T02:22:11.139Z,34.67
2023-04-08T02:22:41.156Z,34.64
2023-04-08T02:23:11.162Z,34.68
2023-04-08T02:23:41.184Z,34.64
2023-04-08T02:24:11.199Z,34.70
2023-04-08T02:24:41.217Z,34.70
2023-04-08T02:25:11.240Z,34.70
2023-04-08T02:25:41.234Z,34.72
2023-04-08T02:26:11.236Z,34.71
2023-04-08T02:26:41.248Z,34.68
2023-04-08T02:27:11.255Z,34.74
2023-04-08T02:27:41.266Z,34.74
2023-04-08T02:28:11.297Z,34.74
2023-04-08T02:28:41.309Z,34.76
2023-04-08T02:29:11.302Z,34.81
2023-04-08T02:29:41.314Z,34.76
2023-04-08T02:30:11.322Z,34.79
2023-04-08T02:30:41.325Z,34.78
2023-04-08T02:31:11.337Z,34.74
2023-04-08T02:31:41.411Z,34.75
2023-04-08T02:32:11.444Z,34.79
2023-04-08T02:32:41.512Z,34.83
2023-04-08T02:33:11.549Z,34.80
2023-04-08T02:33:41.616Z,34.83
2023-04-08T02:34:11.620Z,34.78
2023-04-08T02:34:41.642Z,34.86
2023-04-08T02:35:11.652Z,34.84
2023-04-08T02:35:41.678Z,34.84
2023-04-08T02:36:11.670Z,34.90
2023-04-08T02:36:41.679Z,34.86
2023-04-08T02:37:11.690Z,34.88
2023-04-08T02:37:41.704Z,34.86
2023-04-08T02:38:11.698Z,34.88
2023-04-08T02:38:41.723Z,34.92
2023-04-08T02:39:11.716Z,34.94
2023-04-08T02:39:41.725Z,34.95
2023-04-08T02:40:11.733Z,34.99
2023-04-08T02:40:41.740Z,34.95
2023-04-08T02:41:11.743Z,34.96
2023-04-08T02:41:41.745Z,34.97
2023-04-08T02:42:12.051Z,35.01
2023-04-08T02:42:41.804Z,35.00
2023-04-08T02:43:11.802Z,35.03
2023-04-08T02:43:41.837Z,35.04
2023-04-08T02:44:11.834Z,34.97
2023-04-08T02:44:41.842Z,35.02
2023-04-08T02:45:11.845Z,34.93
2023-04-08T02:45:41.977Z,34.99
2023-04-08T02:46:11.963Z,34.92
2023-04-08T02:46:41.983Z,34.91
2023-04-08T02:47:12.088Z,34.90
2023-04-08T02:47:42.204Z,34.97
2023-04-08T02:48:12.142Z,35.00
2023-04-08T02:48:42.252Z,34.96
2023-04-08T02:49:12.234Z,34.95
2023-04-08T02:49:42.323Z,34.96
2023-04-08T02:50:12.410Z,34.95
2023-04-08T02:50:42.497Z,34.89
2023-04-08T02:51:12.587Z,34.85
2023-04-08T02:51:42.670Z,34.91
2023-04-08T02:52:12.749Z,34.88
2023-04-08T02:52:42.846Z,34.90
2023-04-08T02:53:12.941Z,34.90
2023-04-08T02:53:43.027Z,34.89
2023-04-08T02:54:13.103Z,34.90
2023-04-08T02:54:43.183Z,34.86
2023-04-08T02:55:13.277Z,34.88
2023-04-08T02:55:43.360Z,34.79
2023-04-08T02:56:13.476Z,34.80
2023-04-08T02:56:43.460Z,34.79
2023-04-08T02:57:13.477Z,34.84
2023-04-08T02:57:43.476Z,34.80
2023-04-08T02:58:13.485Z,34.78
2023-04-08T02:58:43.496Z,34.77
2023-04-08T02:59:13.495Z,34.75
2023-04-08T02:59:43.513Z,34.76
2023-04-08T03:00:13.509Z,34.74
2023-04-08T03:00:43.530Z,34.71
2023-04-08T03:01:13.553Z,34.71
2023-04-08T03:01:43.582Z,34.69
2023-04-08T03:02:13.678Z,34.64
2023-04-08T03:02:43.770Z,34.70
2023-04-08T03:03:13.684Z,34.63
2023-04-08T03:03:43.929Z,34.70
2023-04-08T03:04:13.798Z,34.71
2023-04-08T03:04:43.785Z,34.70
2023-04-08T03:05:13.807Z,34.68
2023-04-08T03:05:43.801Z,34.65
2023-04-08T03:06:13.811Z,34.71
2023-04-08T03:06:43.809Z,34.67
2023-04-08T03:07:13.817Z,34.64
2023-04-08T03:07:43.825Z,34.67
2023-04-08T03:08:13.837Z,34.75
2023-04-08T03:08:43.875Z,34.71
2023-04-08T03:09:13.875Z,34.67
2023-04-08T03:09:43.885Z,34.67
2023-04-08T03:10:13.916Z,34.78
2023-04-08T03:10:43.928Z,34.74
2023-04-08T03:11:13.922Z,34.75
2023-04-08T03:12:14.020Z,34.76
2023-04-08T03:12:44.021Z,34.71
2023-04-08T03:13:14.057Z,34.65
2023-04-08T03:13:44.081Z,34.68
2023-04-08T03:14:14.095Z,34.68
2023-04-08T03:14:44.097Z,34.75
2023-04-08T03:15:14.123Z,34.72
2023-04-08T03:15:44.099Z,34.70
2023-04-08T03:16:14.136Z,34.74
2023-04-08T03:16:44.184Z,34.74
2023-04-08T03:17:14.192Z,34.68
2023-04-08T03:17:44.270Z,34.72
2023-04-08T03:18:14.258Z,34.72
2023-04-08T03:18:44.280Z,34.75
2023-04-08T03:19:14.292Z,34.67
2023-04-08T03:19:44.311Z,34.72
2023-04-08T03:20:14.309Z,34.70
2023-04-08T03:20:44.312Z,34.64
2023-04-08T03:21:14.319Z,34.68
2023-04-08T03:21:44.329Z,34.65
2023-04-08T03:22:14.341Z,34.71
2023-04-08T03:23:14.407Z,34.76
2023-04-08T03:23:44.423Z,34.77
2023-04-08T03:24:14.429Z,34.75
2023-04-08T03:24:44.439Z,34.81
2023-04-08T03:25:14.535Z,34.76
2023-04-08T03:25:44.538Z,34.76
2023-04-08T03:26:14.539Z,34.80
2023-04-08T03:26:44.550Z,34.80
2023-04-08T03:27:14.548Z,34.79
2023-04-08T03:28:14.638Z,34.82
2023-04-08T03:28:44.765Z,34.82
2023-04-08T03:29:14.843Z,34.84
2023-04-08T03:29:44.930Z,34.82
2023-04-08T03:30:14.940Z,34.85
2023-04-08T03:30:45.040Z,34.91
2023-04-08T03:31:15.055Z,34.89
2023-04-08T03:31:45.103Z,34.88
2023-04-08T03:32:15.096Z,34.91
2023-04-08T03:32:45.162Z,34.93
2023-04-08T03:33:15.228Z,34.97
2023-04-08T03:33:45.225Z,34.96
2023-04-08T03:34:45.309Z,34.93
2023-04-08T03:35:15.311Z,34.93
2023-04-08T03:35:45.403Z,34.93
2023-04-08T03:36:15.404Z,34.92
2023-04-08T03:36:45.414Z,34.92
2023-04-08T03:37:15.426Z,34.96
2023-04-08T03:37:45.429Z,34.93
2023-04-08T03:38:15.449Z,34.98
2023-04-08T03:38:45.447Z,34.92
2023-04-08T03:39:15.464Z,34.93
2023-04-08T03:39:45.471Z,34.86
2023-04-08T03:40:15.473Z,34.91
2023-04-08T03:40:45.478Z,34.93
2023-04-08T03:41:15.489Z,34.91
2023-04-08T03:41:45.497Z,34.89
2023-04-08T03:42:15.509Z,34.86
2023-04-08T03:42:45.521Z,34.85
2023-04-08T03:43:15.536Z,34.84
2023-04-08T03:43:45.549Z,34.84
2023-04-08T03:44:15.558Z,34.80
2023-04-08T03:44:45.566Z,34.80
2023-04-08T03:45:15.580Z,34.80
2023-04-08T03:45:45.593Z,34.79
2023-04-08T03:46:15.661Z,34.80
2023-04-08T03:46:45.679Z,34.77
2023-04-08T03:47:15.768Z,34.81
2023-04-08T03:47:45.868Z,34.79
2023-04-08T03:48:15.962Z,34.76
2023-04-08T03:48:46.080Z,34.76
2023-04-08T03:49:16.146Z,34.80
2023-04-08T03:49:46.212Z,34.80
2023-04-08T03:50:16.301Z,34.81
2023-04-08T03:50:46.385Z,34.77
2023-04-08T03:51:16.476Z,34.72
2023-04-08T03:51:46.545Z,34.70
2023-04-08T03:52:16.657Z,34.69
2023-04-08T03:52:46.732Z,34.69
2023-04-08T03:53:16.819Z,34.73
2023-04-08T03:53:46.894Z,34.72
2023-04-08T03:54:16.977Z,34.76
2023-04-08T03:54:47.068Z,34.77
2023-04-08T03:55:17.147Z,34.78
2023-04-08T03:55:47.221Z,34.85
2023-04-08T03:56:17.312Z,34.79
2023-04-08T03:56:47.412Z,34.80
2023-04-08T03:57:17.413Z,34.80
2023-04-08T03:57:47.420Z,34.82
2023-04-08T03:58:17.441Z,34.76
2023-04-08T03:58:47.453Z,34.73
2023-04-08T03:59:17.454Z,34.76
2023-04-08T03:59:47.456Z,34.74
2023-04-08T04:00:17.453Z,34.76
2023-04-08T04:00:47.454Z,34.81
2023-04-08T04:01:17.470Z,34.78
2023-04-08T04:01:47.512Z,34.80
2023-04-08T04:02:17.564Z,34.74
2023-04-08T04:02:47.692Z,34.73
2023-04-08T04:03:17.744Z,34.76
2023-04-08T04:03:47.772Z,34.80
2023-04-08T04:04:17.917Z,34.82
2023-04-08T04:04:47.776Z,34.80
2023-04-08T04:05:17.784Z,34.75
2023-04-08T04:05:47.796Z,34.76
2023-04-08T04:06:17.807Z,34.77
2023-04-08T04:06:47.811Z,34.79
2023-04-08T04:07:47.906Z,34.76
2023-04-08T04:08:17.910Z,34.76
2023-04-08T04:08:48.309Z,34.79
2023-04-08T04:09:17.922Z,34.75
2023-04-08T04:09:47.937Z,34.77
2023-04-08T04:10:17.952Z,34.75
2023-04-08T04:10:47.955Z,34.74
2023-04-08T04:11:17.962Z,34.79
2023-04-08T04:11:47.960Z,34.80
2023-04-08T04:12:17.982Z,34.73
2023-04-08T04:12:47.979Z,34.77
2023-04-08T04:13:17.989Z,34.77
2023-04-08T04:13:47.996Z,34.77
2023-04-08T04:14:18.004Z,34.81
2023-04-08T04:14:48.025Z,34.81
2023-04-08T04:15:18.033Z,34.81
2023-04-08T04:15:48.059Z,34.74
2023-04-08T04:16:18.218Z,34.77
2023-04-08T04:16:48.138Z,34.80
2023-04-08T04:17:18.166Z,34.81
2023-04-08T04:17:48.351Z,34.80
2023-04-08T04:18:18.292Z,34.84
2023-04-08T04:18:48.530Z,34.88
2023-04-08T04:19:18.416Z,34.87
2023-04-08T04:19:48.434Z,34.88
2023-04-08T04:20:18.404Z,34.89
2023-04-08T04:21:18.501Z,34.93
2023-04-08T04:21:48.507Z,34.96
2023-04-08T04:22:18.526Z,34.95
2023-04-08T04:22:48.547Z,34.94
2023-04-08T04:23:18.560Z,34.92
2023-04-08T04:23:48.591Z,34.96
2023-04-08T04:24:18.586Z,34.96
2023-04-08T04:24:48.622Z,34.97
2023-04-08T04:25:18.613Z,34.91
2023-04-08T04:26:18.698Z,34.99
2023-04-08T04:26:48.720Z,35.02
2023-04-08T04:27:18.730Z,34.98
2023-04-08T04:27:48.738Z,35.06
2023-04-08T04:28:18.752Z,35.06
2023-04-08T04:28:49.242Z,35.03
2023-04-08T04:29:18.859Z,34.99
2023-04-08T04:29:48.874Z,35.05
2023-04-08T04:30:18.869Z,35.03
2023-04-08T04:30:48.902Z,35.02
2023-04-08T04:31:18.915Z,35.03
2023-04-08T04:31:48.909Z,34.96
2023-04-08T04:32:19.053Z,34.99
2023-04-08T04:32:49.007Z,35.00
2023-04-08T04:33:19.015Z,35.01
2023-04-08T04:33:49.025Z,35.01
2023-04-08T04:34:19.050Z,35.01
2023-04-08T04:34:49.033Z,35.01
2023-04-08T04:35:19.096Z,35.07
2023-04-08T04:35:49.106Z,35.06
2023-04-08T04:36:19.113Z,35.02
2023-04-08T04:36:49.117Z,35.02
2023-04-08T04:37:19.110Z,35.03
2023-04-08T04:37:49.144Z,35.01
2023-04-08T04:38:19.148Z,35.03
2023-04-08T04:38:50.594Z,34.98
2023-04-08T04:39:19.235Z,34.94
2023-04-08T04:39:49.223Z,34.97
2023-04-08T04:40:19.241Z,34.91
2023-04-08T04:40:49.237Z,34.90
2023-04-08T04:41:19.242Z,34.92
2023-04-08T04:41:49.300Z,34.99
2023-04-08T04:42:19.291Z,35.01
2023-04-08T04:42:49.317Z,34.95
2023-04-08T04:43:19.320Z,34.95
2023-04-08T04:44:19.397Z,34.91
2023-04-08T04:44:49.416Z,34.94
2023-04-08T04:45:19.396Z,34.89
2023-04-08T04:46:19.557Z,34.87
2023-04-08T04:46:49.635Z,34.92
2023-04-08T04:47:19.604Z,34.85
2023-04-08T04:47:49.731Z,34.85
2023-04-08T04:48:19.698Z,34.86
2023-04-08T04:48:50.043Z,34.85
2023-04-08T04:49:19.861Z,34.84
2023-04-08T04:49:49.948Z,34.85
2023-04-08T04:50:20.040Z,34.82
2023-04-08T04:50:50.133Z,34.75
2023-04-08T04:51:20.196Z,34.74
2023-04-08T04:51:50.291Z,34.74
2023-04-08T04:52:20.366Z,34.75
2023-04-08T04:52:50.469Z,34.69
2023-04-08T04:53:20.554Z,34.69
2023-04-08T04:53:50.646Z,34.68
2023-04-08T04:54:20.718Z,34.69
2023-04-08T04:54:50.807Z,34.68
2023-04-08T04:55:20.894Z,34.73
2023-04-08T04:55:50.974Z,34.70
2023-04-08T04:56:21.061Z,34.69
2023-04-08T04:56:51.058Z,34.66
2023-04-08T04:57:21.065Z,34.68
2023-04-08T04:57:51.081Z,34.67
2023-04-08T04:58:21.087Z,34.69
2023-04-08T04:58:51.324Z,34.71
2023-04-08T04:59:21.214Z,34.69
2023-04-08T04:59:51.208Z,34.74
2023-04-08T05:00:21.219Z,34.69
2023-04-08T05:00:51.222Z,34.74
2023-04-08T05:01:21.243Z,34.65
2023-04-08T05:01:51.382Z,34.65
2023-04-08T05:02:21.404Z,34.61
2023-04-08T05:02:51.666Z,34.61
2023-04-08T05:03:21.421Z,34.57
2023-04-08T05:03:51.437Z,34.61
2023-04-08T05:04:21.434Z,34.58
2023-04-08T05:04:51.461Z,34.60
2023-04-08T05:05:21.538Z,34.60
2023-04-08T05:05:51.493Z,34.63
2023-04-08T05:06:21.517Z,34.60
2023-04-08T05:06:51.492Z,34.61
2023-04-08T05:07:51.612Z,34.65
2023-04-08T05:08:21.665Z,34.70
2023-04-08T05:08:52.031Z,34.71
2023-04-08T05:09:21.681Z,34.69
2023-04-08T05:09:51.689Z,34.78
2023-04-08T05:10:21.689Z,34.77
2023-04-08T05:10:51.697Z,34.78
2023-04-08T05:11:21.716Z,34.83
2023-04-08T05:11:51.711Z,34.82
2023-04-08T05:12:21.823Z,34.84
2023-04-08T05:12:51.845Z,34.82
2023-04-08T05:13:21.857Z,34.87
2023-04-08T05:13:51.867Z,34.84
2023-04-08T05:14:21.869Z,34.87
2023-04-08T05:14:51.868Z,34.87
2023-04-08T05:15:21.876Z,34.83
2023-04-08T05:15:51.899Z,34.85
2023-04-08T05:16:21.987Z,34.89
2023-04-08T05:16:51.969Z,34.90
2023-04-08T05:17:22.065Z,34.91
2023-04-08T05:17:52.045Z,34.87
2023-04-08T05:18:22.063Z,34.86
2023-04-08T05:18:52.411Z,34.89
2023-04-08T05:19:22.134Z,34.90
2023-04-08T05:19:52.139Z,34.90
2023-04-08T05:20:22.144Z,34.95
2023-04-08T05:20:52.158Z,34.92
2023-04-08T05:21:22.156Z,34.94
2023-04-08T05:21:52.191Z,34.97
2023-04-08T05:22:22.226Z,34.99
2023-04-08T05:22:52.228Z,35.00
2023-04-08T05:23:22.235Z,34.96
2023-04-08T05:23:52.238Z,34.99
2023-04-08T05:24:22.254Z,35.01
2023-04-08T05:24:52.259Z,35.02
2023-04-08T05:25:22.274Z,34.95
2023-04-08T05:25:52.281Z,34.97
2023-04-08T05:26:22.278Z,34.98
2023-04-08T05:26:52.301Z,34.99
2023-04-08T05:27:22.298Z,34.99
2023-04-08T05:27:52.315Z,34.98
2023-04-08T05:28:22.316Z,34.98
2023-04-08T05:28:52.587Z,35.02
2023-04-08T05:29:22.325Z,34.98
2023-04-08T05:29:52.334Z,34.95
2023-04-08T05:30:22.328Z,34.96
2023-04-08T05:31:22.469Z,34.95
2023-04-08T05:31:52.573Z,34.90
2023-04-08T05:32:22.498Z,34.89
2023-04-08T05:32:52.544Z,34.93
2023-04-08T05:33:22.573Z,34.92
2023-04-08T05:33:52.571Z,34.84
2023-04-08T05:34:22.604Z,34.87
2023-04-08T05:34:52.625Z,34.91
2023-04-08T05:35:22.627Z,34.91
2023-04-08T05:35:52.834Z,34.88
2023-04-08T05:36:22.770Z,34.80
2023-04-08T05:36:52.778Z,34.87
2023-04-08T05:37:22.837Z,34.85
2023-04-08T05:37:52.850Z,34.81
2023-04-08T05:38:22.855Z,34.84
2023-04-08T05:38:52.917Z,34.85
2023-04-08T05:39:22.935Z,34.82
2023-04-08T05:39:52.947Z,34.82
2023-04-08T05:40:22.956Z,34.81
2023-04-08T05:40:52.970Z,34.81
2023-04-08T05:41:22.976Z,34.73
2023-04-08T05:41:52.988Z,34.82
2023-04-08T05:42:22.984Z,34.82
2023-04-08T05:42:52.985Z,34.79
2023-04-08T05:43:22.992Z,34.83
2023-04-08T05:43:53.007Z,34.80
2023-04-08T05:44:23.006Z,34.79
2023-04-08T05:44:53.011Z,34.78
2023-04-08T05:45:23.024Z,34.71
2023-04-08T05:45:53.031Z,34.73
2023-04-08T05:46:23.051Z,34.71
2023-04-08T05:46:53.117Z,34.74
2023-04-08T05:47:23.122Z,34.77
2023-04-08T05:47:53.207Z,34.75
2023-04-08T05:48:23.170Z,34.77
2023-04-08T05:48:53.264Z,34.73
2023-04-08T05:49:23.371Z,34.70
2023-04-08T05:49:53.451Z,34.77
2023-04-08T05:50:23.548Z,34.78
2023-04-08T05:50:53.636Z,34.75
2023-04-08T05:51:23.724Z,34.70
2023-04-08T05:51:53.810Z,34.69
2023-04-08T05:52:23.902Z,34.70
2023-04-08T05:52:54.290Z,34.67
2023-04-08T05:53:24.014Z,34.67
2023-04-08T05:54:24.139Z,34.67
2023-04-08T05:54:54.225Z,34.68
2023-04-08T05:55:24.307Z,34.70
2023-04-08T05:55:54.388Z,34.70
2023-04-08T05:56:24.477Z,34.73
2023-04-08T05:56:54.580Z,34.73
2023-04-08T05:57:24.587Z,34.74
2023-04-08T05:57:54.598Z,34.70
2023-04-08T05:58:24.602Z,34.70
2023-04-08T05:58:54.603Z,34.70
2023-04-08T05:59:54.681Z,34.66
2023-04-08T06:00:24.721Z,34.65
2023-04-08T06:00:54.695Z,34.70
2023-04-08T06:01:54.838Z,34.66
2023-04-08T06:02:25.002Z,34.65
2023-04-08T06:02:55.112Z,34.64
2023-04-08T06:03:25.146Z,34.63
2023-04-08T06:03:55.315Z,34.68
2023-04-08T06:04:25.228Z,34.62
2023-04-08T06:04:55.191Z,34.62
2023-04-08T06:05:25.182Z,34.61
2023-04-08T06:05:55.194Z,34.59
2023-04-08T06:06:25.201Z,34.57
2023-04-08T06:06:55.217Z,34.57
2023-04-08T06:07:25.217Z,34.53
2023-04-08T06:07:55.230Z,34.58
2023-04-08T06:08:25.265Z,34.57
2023-04-08T06:08:55.259Z,34.62
2023-04-08T06:09:55.334Z,34.61
2023-04-08T06:10:25.327Z,34.63
2023-04-08T06:10:55.333Z,34.67
2023-04-08T06:11:25.340Z,34.62
2023-04-08T06:11:55.344Z,34.61
2023-04-08T06:12:25.357Z,34.61
2023-04-08T06:12:55.382Z,34.64
2023-04-08T06:13:25.376Z,34.64
2023-04-08T06:13:55.470Z,34.66
2023-04-08T06:14:25.451Z,34.65
2023-04-08T06:14:55.458Z,34.65
2023-04-08T06:15:25.463Z,34.68
2023-04-08T06:15:55.479Z,34.73
2023-04-08T06:16:25.496Z,34.75
2023-04-08T06:16:55.576Z,34.75
2023-04-08T06:17:25.718Z,34.70
2023-04-08T06:17:55.664Z,34.70
2023-04-08T06:18:25.685Z,34.69
2023-04-08T06:18:55.696Z,34.73
2023-04-08T06:19:25.717Z,34.66
2023-04-08T06:19:55.703Z,34.69
2023-04-08T06:20:25.720Z,34.70
2023-04-08T06:20:55.719Z,34.66
2023-04-08T06:21:25.731Z,34.73
2023-04-08T06:21:55.739Z,34.70
2023-04-08T06:22:25.754Z,34.74
2023-04-08T06:22:55.753Z,34.74
2023-04-08T06:23:55.871Z,34.75
2023-04-08T06:24:25.874Z,34.77
2023-04-08T06:25:25.966Z,34.74
2023-04-08T06:25:55.967Z,34.70
2023-04-08T06:26:25.988Z,34.71
2023-04-08T06:26:55.992Z,34.76
2023-04-08T06:27:25.996Z,34.71
2023-04-08T06:27:56.024Z,34.69
2023-04-08T06:28:26.278Z,34.74
2023-04-08T06:28:56.041Z,34.71
2023-04-08T06:29:26.058Z,34.67
2023-04-08T06:29:56.055Z,34.74
2023-04-08T06:30:26.079Z,34.74
2023-04-08T06:30:56.085Z,34.70
2023-04-08T06:31:26.077Z,34.79
2023-04-08T06:32:26.202Z,34.77
2023-04-08T06:32:56.257Z,34.74
2023-04-08T06:33:26.293Z,34.79
2023-04-08T06:33:56.296Z,34.77
2023-04-08T06:34:26.288Z,34.78
2023-04-08T06:34:56.298Z,34.73
2023-04-08T06:35:26.333Z,34.71
2023-04-08T06:35:56.318Z,34.71
2023-04-08T06:36:26.320Z,34.66
2023-04-08T06:36:56.327Z,34.66